createdAt,value
2018-11-21T00:00:30.268Z,41.97
2018-11-21T00:01:30.223Z,41.78
2018-11-21T00:02:30.180Z,41.21
2018-11-21T00:03:30.140Z,41.21
2018-11-21T00:06:02.196Z,37.23
2018-11-21T00:07:02.132Z,37.14
2018-11-21T00:08:02.092Z,36.76
2018-11-21T00:09:02.047Z,35.62
2018-11-21T00:10:01.999Z,35.81
2018-11-21T00:11:01.960Z,36.00
2018-11-21T00:12:01.916Z,35.81
2018-11-21T00:13:01.876Z,35.62
2018-11-21T00:14:01.831Z,35.81
2018-11-21T00:15:01.784Z,36.00
2018-11-21T00:16:01.740Z,36.76
2018-11-21T00:17:01.699Z,37.52
2018-11-21T00:18:01.655Z,37.33
2018-11-21T00:19:01.615Z,37.04
2018-11-21T00:20:01.569Z,36.29
2018-11-21T00:21:01.527Z,36.10
2018-11-21T00:22:01.490Z,36.76
2018-11-21T00:23:01.438Z,37.23
2018-11-21T00:24:01.399Z,37.14
2018-11-21T00:25:01.360Z,37.14
2018-11-21T00:26:01.317Z,36.57
2018-11-21T00:27:01.264Z,36.76
2018-11-21T00:28:01.229Z,37.04
2018-11-21T00:29:01.180Z,38.18
2018-11-21T00:30:01.139Z,38.46
2018-11-21T00:31:01.098Z,39.22
2018-11-21T00:32:01.052Z,39.41
2018-11-21T00:33:01.008Z,39.41
2018-11-21T00:34:00.967Z,38.37
2018-11-21T00:35:00.918Z,37.12
2018-11-21T00:36:00.878Z,34.94
2018-11-21T00:37:00.834Z,32.95
2018-11-21T00:38:00.792Z,31.06
2018-11-21T00:39:00.751Z,29.64
2018-11-21T00:40:00.710Z,29.26
2018-11-21T00:41:00.670Z,28.78
2018-11-21T00:42:00.619Z,28.69
2018-11-21T00:43:00.578Z,27.65
2018-11-21T00:44:00.534Z,27.17
2018-11-21T00:45:00.495Z,27.27
2018-11-21T00:46:00.450Z,27.94
2018-11-21T00:47:00.402Z,28.69
2018-11-21T00:48:00.359Z,29.45
2018-11-21T00:49:00.316Z,30.02
2018-11-21T00:50:00.271Z,30.77
2018-11-21T00:51:00.234Z,30.87
2018-11-21T00:52:00.188Z,31.25
2018-11-21T00:53:00.145Z,31.53
2018-11-21T00:54:00.135Z,31.34
2018-11-21T00:55:00.055Z,30.77
2018-11-21T00:56:00.014Z,31.25
2018-11-21T00:57:00.451Z,31.63
2018-11-21T00:57:59.933Z,32.39
2018-11-21T00:58:59.881Z,32.86
2018-11-21T00:59:59.840Z,32.76
2018-11-21T01:00:59.803Z,32.48
2018-11-21T01:01:59.768Z,31.06
2018-11-21T01:02:59.714Z,29.83
2018-11-21T01:03:59.672Z,27.08
2018-11-21T01:04:59.669Z,26.14
2018-11-21T01:05:59.587Z,25.66
2018-11-21T01:06:59.537Z,24.81
2018-11-21T01:07:59.497Z,24.33
2018-11-21T01:08:59.453Z,24.43
2018-11-21T01:09:59.412Z,24.05
2018-11-21T01:10:59.368Z,24.15
2018-11-21T01:11:59.327Z,23.77
2018-11-21T01:12:59.280Z,23.67
2018-11-21T01:13:59.234Z,23.39
2018-11-21T01:14:59.196Z,23.58
2018-11-21T01:15:59.154Z,23.39
2018-11-21T01:16:59.108Z,23.10
2018-11-21T01:17:59.069Z,23.01
2018-11-21T01:18:59.021Z,23.20
2018-11-21T01:19:58.976Z,24.33
2018-11-21T01:20:58.934Z,24.52
2018-11-21T01:21:58.889Z,24.90
2018-11-21T01:22:58.851Z,25.66
2018-11-21T01:23:58.810Z,26.81
2018-11-21T01:24:58.763Z,27.84
2018-11-21T01:25:58.723Z,29.64
2018-11-21T01:26:58.672Z,30.21
2018-11-21T01:27:58.632Z,31.74
2018-11-21T01:28:58.591Z,31.45
2018-11-21T01:29:58.549Z,32.31
2018-11-21T01:30:58.502Z,33.06
2018-11-21T01:31:58.467Z,32.20
2018-11-21T01:32:58.415Z,32.02
2018-11-21T01:33:58.371Z,32.57
2018-11-21T01:34:58.333Z,32.31
2018-11-21T01:35:58.293Z,31.74
2018-11-21T01:36:58.245Z,32.10
2018-11-21T01:37:58.206Z,32.31
2018-11-21T01:38:58.158Z,32.57
2018-11-21T01:39:58.113Z,32.86
2018-11-21T01:40:58.074Z,33.25
2018-11-21T01:41:58.025Z,33.82
2018-11-21T01:42:57.987Z,33.73
2018-11-21T01:43:57.941Z,35.24
2018-11-21T01:44:57.897Z,35.72
2018-11-21T01:45:57.852Z,37.14
2018-11-21T01:46:57.816Z,38.65
2018-11-21T01:47:57.769Z,39.13
2018-11-21T01:48:57.727Z,38.75
2018-11-21T01:49:57.685Z,38.46
2018-11-21T01:50:57.635Z,38.18
2018-11-21T01:51:57.602Z,37.40
2018-11-21T01:52:57.557Z,36.93
2018-11-21T01:53:57.507Z,36.74
2018-11-21T01:54:57.472Z,36.46
2018-11-21T01:55:57.424Z,36.27
2018-11-21T01:56:57.381Z,35.13
2018-11-21T01:57:57.342Z,33.71
2018-11-21T01:58:57.290Z,32.29
2018-11-21T01:59:57.251Z,30.02
2018-11-21T02:00:57.209Z,28.03
2018-11-21T02:01:57.167Z,26.98
2018-11-21T02:02:57.118Z,26.32
2018-11-21T02:03:57.078Z,26.04
2018-11-21T02:04:57.037Z,25.57
2018-11-21T02:05:56.991Z,24.52
2018-11-21T02:06:56.952Z,24.24
2018-11-21T02:07:56.906Z,24.05
2018-11-21T02:08:56.863Z,23.58
2018-11-21T02:09:56.823Z,22.91
2018-11-21T02:10:56.774Z,22.91
2018-11-21T02:11:56.733Z,23.10
2018-11-21T02:12:56.690Z,23.58
2018-11-21T02:13:56.646Z,24.05
2018-11-21T02:14:56.624Z,24.05
2018-11-21T02:15:56.561Z,24.05
2018-11-21T02:16:56.516Z,23.01
2018-11-21T02:17:56.473Z,21.59
2018-11-21T02:18:56.438Z,21.11
2018-11-21T02:19:56.388Z,20.36
2018-11-21T02:20:56.345Z,18.46
2018-11-21T02:21:56.306Z,17.14
2018-11-21T02:22:56.254Z,17.52
2018-11-21T02:23:56.212Z,17.42
2018-11-21T02:24:56.169Z,18.18
2018-11-21T02:25:56.125Z,18.37
2018-11-21T02:26:56.089Z,18.65
2018-11-21T02:27:56.041Z,18.75
2018-11-21T02:28:56.000Z,18.75
2018-11-21T02:29:55.976Z,18.75
2018-11-21T02:30:55.909Z,17.42
2018-11-21T02:31:55.882Z,16.95
2018-11-21T02:32:55.826Z,16.76
2018-11-21T02:33:55.784Z,17.04
2018-11-21T02:34:55.735Z,17.52
2018-11-21T02:35:55.695Z,17.71
2018-11-21T02:36:55.655Z,18.27
2018-11-21T02:37:55.606Z,19.70
2018-11-21T02:38:55.568Z,20.07
2018-11-21T02:39:55.523Z,19.89
2018-11-21T02:40:55.479Z,18.75
2018-11-21T02:41:55.439Z,18.65
2018-11-21T02:42:55.389Z,18.27
2018-11-21T02:43:55.353Z,18.75
2018-11-21T02:44:55.304Z,18.94
2018-11-21T02:45:55.260Z,20.26
2018-11-21T02:46:55.221Z,20.54
2018-11-21T02:47:55.179Z,21.02
2018-11-21T02:48:55.131Z,20.17
2018-11-21T02:49:55.091Z,20.17
2018-11-21T02:50:55.050Z,20.26
2018-11-21T02:51:55.006Z,20.07
2018-11-21T02:52:54.962Z,20.17
2018-11-21T02:53:54.924Z,20.07
2018-11-21T02:54:54.868Z,20.73
2018-11-21T02:55:54.832Z,21.50
2018-11-21T02:56:54.787Z,21.78
2018-11-21T02:57:54.742Z,21.78
2018-11-21T02:58:54.702Z,20.83
2018-11-21T02:59:54.659Z,20.83
2018-11-21T03:00:54.617Z,21.21
2018-11-21T03:01:54.573Z,21.11
2018-11-21T03:02:54.523Z,20.83
2018-11-21T03:03:54.482Z,20.17
2018-11-21T03:04:54.441Z,20.17
2018-11-21T03:05:54.400Z,20.17
2018-11-21T03:06:54.349Z,20.26
2018-11-21T03:07:54.308Z,20.17
2018-11-21T03:08:54.267Z,19.98
2018-11-21T03:09:54.225Z,20.26
2018-11-21T03:10:54.183Z,20.83
2018-11-21T03:11:54.137Z,20.92
2018-11-21T03:12:54.099Z,21.11
2018-11-21T03:13:54.053Z,20.83
2018-11-21T03:14:54.012Z,21.02
2018-11-21T03:15:53.965Z,21.79
2018-11-21T03:16:53.920Z,21.79
2018-11-21T03:17:53.876Z,21.59
2018-11-21T03:18:53.837Z,21.98
2018-11-21T03:19:53.799Z,22.45
2018-11-21T03:20:53.746Z,22.45
2018-11-21T03:21:53.703Z,22.92
2018-11-21T03:22:53.666Z,22.64
2018-11-21T03:23:53.619Z,22.45
2018-11-21T03:24:53.576Z,22.55
2018-11-21T03:25:53.536Z,22.27
2018-11-21T03:26:53.486Z,22.36
2018-11-21T03:27:53.451Z,22.55
2018-11-21T03:28:53.401Z,22.45
2018-11-21T03:29:53.363Z,22.83
2018-11-21T03:30:53.322Z,21.69
2018-11-21T03:31:53.276Z,21.79
2018-11-21T03:32:53.231Z,22.07
2018-11-21T03:33:57.665Z,22.36
2018-11-21T03:34:53.142Z,22.27
2018-11-21T03:35:53.110Z,22.27
2018-11-21T03:36:53.058Z,22.45
2018-11-21T03:37:53.018Z,22.64
2018-11-21T03:38:52.978Z,22.92
2018-11-21T03:39:52.927Z,23.11
2018-11-21T03:40:52.884Z,23.02
2018-11-21T03:41:52.841Z,23.11
2018-11-21T03:42:52.801Z,23.02
2018-11-21T03:43:52.757Z,23.02
2018-11-21T03:44:52.716Z,23.02
2018-11-21T03:45:52.675Z,23.02
2018-11-21T03:46:52.627Z,23.02
2018-11-21T03:47:52.582Z,23.49
2018-11-21T03:48:52.538Z,23.11
2018-11-21T03:49:52.497Z,23.49
2018-11-21T03:50:52.455Z,21.03
2018-11-21T03:51:52.415Z,19.80
2018-11-21T04:06:35.036Z,0.00
2018-11-21T04:07:34.946Z,1.51
2018-11-21T04:08:34.902Z,4.64
2018-11-21T04:09:34.865Z,6.92
2018-11-21T04:10:34.808Z,8.43
2018-11-21T04:11:34.762Z,9.56
2018-11-21T04:12:34.720Z,10.14
2018-11-21T04:13:34.672Z,11.18
2018-11-21T04:14:34.625Z,11.65
2018-11-21T04:15:34.581Z,11.27
2018-11-21T04:16:34.538Z,10.33
2018-11-21T04:17:34.500Z,10.52
2018-11-21T04:18:34.449Z,10.71
2018-11-21T04:19:34.406Z,10.89
2018-11-21T04:20:34.367Z,11.08
2018-11-21T04:21:34.317Z,10.71
2018-11-21T04:22:34.272Z,11.27
2018-11-21T04:23:34.232Z,11.65
2018-11-21T04:24:34.184Z,11.65
2018-11-21T04:25:34.149Z,11.65
2018-11-21T04:26:34.101Z,11.46
2018-11-21T04:27:34.054Z,11.74
2018-11-21T04:28:34.009Z,12.13
2018-11-21T04:29:33.973Z,12.32
2018-11-21T04:30:33.927Z,12.41
2018-11-21T04:31:33.882Z,11.93
2018-11-21T04:32:33.848Z,12.03
2018-11-21T04:33:33.792Z,12.03
2018-11-21T04:34:33.755Z,12.22
2018-11-21T04:35:33.710Z,12.22
2018-11-21T04:36:33.667Z,11.84
2018-11-21T04:37:33.628Z,12.41
2018-11-21T04:38:33.580Z,13.17
2018-11-21T04:39:33.541Z,13.26
2018-11-21T04:40:33.502Z,13.07
2018-11-21T04:41:33.465Z,13.07
2018-11-21T04:42:33.444Z,13.54
2018-11-21T04:43:33.367Z,13.45
2018-11-21T04:44:33.329Z,13.73
2018-11-21T04:45:33.273Z,13.64
2018-11-21T04:46:33.231Z,13.92
2018-11-21T04:47:33.189Z,13.54
2018-11-21T04:48:33.146Z,13.64
2018-11-21T04:49:33.112Z,14.31
2018-11-21T04:50:33.061Z,14.31
2018-11-21T04:51:33.021Z,14.97
2018-11-21T04:52:32.975Z,14.87
2018-11-21T04:53:32.931Z,15.91
2018-11-21T04:54:32.886Z,16.58
2018-11-21T04:55:32.852Z,17.05
2018-11-21T04:56:32.802Z,17.35
2018-11-21T04:57:32.762Z,17.52
2018-11-21T04:58:32.740Z,17.62
2018-11-21T04:59:32.670Z,18.29
2018-11-21T05:00:32.630Z,18.57
2018-11-21T05:01:32.602Z,18.76
2018-11-21T05:02:33.008Z,18.76
2018-11-21T05:03:32.505Z,19.04
2018-11-21T05:04:32.460Z,19.23
2018-11-21T05:05:32.415Z,18.85
2018-11-21T05:06:32.370Z,18.85
2018-11-21T05:07:32.330Z,19.13
2018-11-21T05:08:32.290Z,19.23
2018-11-21T05:09:32.245Z,19.51
2018-11-21T05:10:32.204Z,19.89
2018-11-21T05:11:32.167Z,19.80
2018-11-21T05:12:32.117Z,18.66
2018-11-21T05:13:32.072Z,18.85
2018-11-21T05:14:32.026Z,18.57
2018-11-21T05:15:31.989Z,18.76
2018-11-21T05:16:31.944Z,18.66
2018-11-21T05:17:31.900Z,18.38
2018-11-21T05:18:31.857Z,18.29
2018-11-21T05:19:31.831Z,17.24
2018-11-21T05:20:31.771Z,16.20
2018-11-21T05:21:31.733Z,16.49
2018-11-21T05:22:31.688Z,16.20
2018-11-21T05:23:31.647Z,15.82
2018-11-21T05:24:31.602Z,15.63
2018-11-21T05:25:31.556Z,15.53
2018-11-21T05:26:31.512Z,16.30
2018-11-21T05:27:31.469Z,16.20
2018-11-21T05:28:31.427Z,16.58
2018-11-21T05:29:31.389Z,17.05
2018-11-21T05:30:31.345Z,17.14
2018-11-21T05:31:31.296Z,17.62
2018-11-21T05:32:31.256Z,17.52
2018-11-21T05:33:31.216Z,18.19
2018-11-21T05:34:31.173Z,18.09
2018-11-21T05:35:31.133Z,18.38
2018-11-21T05:36:31.091Z,16.96
2018-11-21T05:37:31.041Z,18.66
2018-11-21T05:38:30.997Z,18.66
2018-11-21T05:39:30.953Z,18.95
2018-11-21T05:40:30.912Z,19.80
2018-11-21T05:41:30.874Z,20.28
2018-11-21T05:42:30.831Z,21.12
2018-11-21T05:43:30.788Z,22.55
2018-11-21T05:44:31.530Z,22.92
2018-11-21T05:45:30.698Z,23.49
2018-11-21T05:46:30.652Z,24.35
2018-11-21T05:47:30.616Z,24.54
2018-11-21T05:48:30.573Z,24.35
2018-11-21T05:49:30.528Z,25.20
2018-11-21T05:50:30.484Z,25.67
2018-11-21T05:51:30.447Z,26.34
2018-11-21T05:52:30.405Z,26.34
2018-11-21T05:53:30.360Z,27.66
2018-11-21T05:54:30.324Z,28.42
2018-11-21T05:55:30.277Z,28.52
2018-11-21T05:56:30.231Z,27.57
2018-11-21T05:57:30.184Z,27.00
2018-11-21T05:58:30.139Z,26.43
2018-11-21T05:59:30.096Z,25.58
2018-11-21T06:00:30.056Z,24.35
2018-11-21T06:01:30.017Z,22.45
2018-11-21T06:02:29.974Z,21.12
2018-11-21T06:03:29.924Z,18.56
2018-11-21T06:04:29.900Z,16.28
2018-11-21T06:05:29.844Z,14.86
2018-11-21T06:06:29.802Z,13.45
2018-11-21T06:07:29.759Z,12.59
2018-11-21T06:08:29.715Z,12.88
2018-11-21T06:09:29.675Z,13.16
2018-11-21T06:10:29.624Z,13.82
2018-11-21T06:11:29.584Z,14.02
2018-11-21T06:12:29.542Z,14.29
2018-11-21T06:13:29.502Z,14.21
2018-11-21T06:14:29.458Z,14.69
2018-11-21T06:15:29.414Z,15.15
2018-11-21T06:16:29.373Z,15.63
2018-11-21T06:17:29.326Z,15.91
2018-11-21T06:18:29.280Z,16.30
2018-11-21T06:19:29.244Z,16.96
2018-11-21T06:20:29.199Z,17.24
2018-11-21T06:21:29.158Z,18.48
2018-11-21T06:22:29.108Z,19.32
2018-11-21T06:23:29.066Z,19.89
2018-11-21T06:24:29.025Z,20.75
2018-11-21T06:25:28.985Z,20.94
2018-11-21T06:26:28.944Z,21.22
2018-11-21T06:27:28.899Z,21.03
2018-11-21T06:28:28.855Z,20.84
2018-11-21T06:29:28.815Z,20.94
2018-11-21T06:30:28.764Z,21.50
2018-11-21T06:31:28.723Z,21.50
2018-11-21T06:32:28.681Z,21.79
2018-11-21T06:33:28.640Z,21.88
2018-11-21T06:34:32.725Z,21.79
2018-11-21T06:35:28.550Z,22.92
2018-11-21T06:36:28.515Z,23.21
2018-11-21T06:37:28.468Z,23.97
2018-11-21T06:38:28.426Z,23.78
2018-11-21T06:39:28.383Z,24.54
2018-11-21T06:40:28.337Z,25.58
2018-11-21T06:41:28.296Z,25.96
2018-11-21T06:42:28.247Z,26.15
2018-11-21T06:43:28.212Z,26.90
2018-11-21T06:44:28.164Z,26.81
2018-11-21T06:45:28.124Z,26.53
2018-11-21T06:46:28.088Z,26.34
2018-11-21T06:47:28.041Z,26.81
2018-11-21T06:48:27.995Z,27.66
2018-11-21T06:49:27.950Z,28.42
2018-11-21T06:50:27.903Z,28.42
2018-11-21T06:51:27.914Z,28.52
2018-11-21T06:52:27.821Z,28.23
2018-11-21T06:53:27.779Z,27.76
2018-11-21T06:54:27.731Z,26.90
2018-11-21T06:55:27.690Z,26.15
2018-11-21T06:56:27.650Z,26.05
2018-11-21T06:57:27.610Z,25.47
2018-11-21T06:58:27.566Z,25.09
2018-11-21T06:59:27.522Z,25.10
2018-11-21T07:00:27.479Z,24.52
2018-11-21T07:01:27.436Z,24.73
2018-11-21T07:02:27.387Z,24.62
2018-11-21T07:03:27.347Z,24.26
2018-11-21T07:04:27.321Z,24.26
2018-11-21T07:05:27.264Z,24.35
2018-11-21T07:06:27.220Z,24.54
2018-11-21T07:07:27.172Z,24.63
2018-11-21T07:08:27.135Z,24.54
2018-11-21T07:09:27.090Z,24.54
2018-11-21T07:10:27.049Z,24.54
2018-11-21T07:11:27.068Z,24.54
2018-11-21T07:12:26.962Z,25.10
2018-11-21T07:13:26.921Z,25.20
2018-11-21T07:14:26.871Z,25.01
2018-11-21T07:15:26.828Z,25.10
2018-11-21T07:16:26.790Z,24.44
2018-11-21T07:17:26.746Z,24.91
2018-11-21T07:18:26.711Z,24.54
2018-11-21T07:19:26.660Z,24.54
2018-11-21T07:20:26.624Z,24.54
2018-11-21T07:21:26.572Z,24.63
2018-11-21T07:22:26.528Z,24.63
2018-11-21T07:23:26.495Z,24.54
2018-11-21T07:24:26.523Z,24.73
2018-11-21T07:25:26.404Z,24.54
2018-11-21T07:26:26.365Z,25.01
2018-11-21T07:27:26.314Z,24.54
2018-11-21T07:28:26.274Z,24.54
2018-11-21T07:29:26.231Z,24.35
2018-11-21T07:30:26.189Z,24.91
2018-11-21T07:31:26.146Z,24.63
2018-11-21T07:32:26.102Z,24.63
2018-11-21T07:33:26.056Z,24.54
2018-11-21T07:34:26.012Z,24.54
2018-11-21T07:35:25.967Z,24.54
2018-11-21T07:36:25.928Z,24.26
2018-11-21T07:37:25.886Z,23.68
2018-11-21T07:38:25.844Z,23.02
2018-11-21T07:39:25.797Z,22.45
2018-11-21T07:40:25.758Z,22.07
2018-11-21T07:41:25.728Z,21.79
2018-11-21T07:42:25.676Z,21.50
2018-11-21T07:43:25.630Z,21.12
2018-11-21T07:44:25.586Z,20.75
2018-11-21T07:45:25.544Z,20.56
2018-11-21T07:46:25.498Z,20.65
2018-11-21T07:47:26.662Z,20.47
2018-11-21T07:48:25.411Z,21.03
2018-11-21T07:49:25.371Z,21.12
2018-11-21T07:50:25.333Z,20.75
2018-11-21T07:51:25.286Z,21.69
2018-11-21T07:52:25.242Z,21.79
2018-11-21T07:53:25.198Z,21.69
2018-11-21T07:54:25.150Z,21.79
2018-11-21T07:55:25.115Z,22.07
2018-11-21T07:56:25.070Z,22.74
2018-11-21T07:57:25.028Z,23.68
2018-11-21T07:58:24.979Z,24.54
2018-11-21T07:59:24.937Z,24.91
2018-11-21T08:00:24.901Z,25.39
2018-11-21T08:01:24.859Z,25.77
2018-11-21T08:02:25.639Z,26.24
2018-11-21T08:03:24.772Z,26.62
2018-11-21T08:04:24.728Z,26.62
2018-11-21T08:05:24.711Z,26.53
2018-11-21T08:06:24.640Z,25.96
2018-11-21T08:07:24.597Z,26.24
2018-11-21T08:08:24.553Z,26.15
2018-11-21T08:09:24.512Z,25.67
2018-11-21T08:10:24.472Z,26.24
2018-11-21T08:11:24.428Z,26.24
2018-11-21T08:12:24.384Z,26.15
2018-11-21T08:13:24.347Z,25.67
2018-11-21T08:14:24.301Z,25.86
2018-11-21T08:15:24.266Z,25.86
2018-11-21T08:16:25.129Z,25.86
2018-11-21T08:17:24.169Z,25.67
2018-11-21T08:18:24.122Z,25.48
2018-11-21T08:19:24.080Z,25.58
2018-11-21T08:20:24.049Z,25.96
2018-11-21T08:21:23.999Z,25.86
2018-11-21T08:22:23.957Z,25.67
2018-11-21T08:23:23.923Z,26.34
2018-11-21T08:24:23.873Z,26.24
2018-11-21T08:25:23.833Z,26.15
2018-11-21T08:26:23.784Z,26.24
2018-11-21T08:27:23.746Z,25.77
2018-11-21T08:28:23.708Z,25.10
2018-11-21T08:29:23.656Z,24.26
2018-11-21T08:30:24.134Z,23.59
2018-11-21T08:31:23.571Z,22.92
2018-11-21T08:32:23.530Z,21.98
2018-11-21T08:33:23.487Z,21.69
2018-11-21T08:34:23.449Z,21.12
2018-11-21T08:35:23.403Z,20.56
2018-11-21T08:36:23.357Z,19.89
2018-11-21T08:37:23.315Z,19.13
2018-11-21T08:38:23.266Z,18.66
2018-11-21T08:39:23.225Z,18.09
2018-11-21T08:40:23.184Z,17.43
2018-11-21T08:41:23.144Z,17.52
2018-11-21T08:42:23.100Z,18.09
2018-11-21T08:43:23.061Z,17.90
2018-11-21T08:44:23.014Z,17.71
2018-11-21T08:45:22.972Z,17.24
2018-11-21T08:46:22.929Z,17.24
2018-11-21T08:47:22.887Z,17.33
2018-11-21T08:48:22.840Z,16.49
2018-11-21T08:49:22.796Z,16.49
2018-11-21T08:50:22.749Z,16.30
2018-11-21T08:51:22.709Z,15.16
2018-11-21T08:52:22.667Z,14.50
2018-11-21T08:53:22.625Z,12.98
2018-11-21T08:54:22.585Z,11.93
2018-11-21T08:55:22.543Z,11.74
2018-11-21T08:56:22.496Z,10.80
2018-11-21T08:57:22.462Z,9.94
2018-11-21T08:58:22.405Z,9.75
2018-11-21T08:59:22.372Z,9.75
2018-11-21T09:00:22.342Z,9.47
2018-11-21T09:01:22.280Z,9.85
2018-11-21T09:02:22.237Z,10.23
2018-11-21T09:03:22.193Z,10.80
2018-11-21T09:04:22.151Z,11.18
2018-11-21T09:05:22.112Z,11.18
2018-11-21T09:06:22.068Z,10.89
2018-11-21T09:07:22.025Z,10.61
2018-11-21T09:08:21.984Z,10.89
2018-11-21T09:09:21.934Z,10.71
2018-11-21T09:10:21.896Z,10.61
2018-11-21T09:11:21.851Z,11.27
2018-11-21T09:12:21.810Z,11.36
2018-11-21T09:13:21.769Z,11.36
2018-11-21T09:14:21.723Z,11.08
2018-11-21T09:15:21.684Z,11.27
2018-11-21T09:16:21.634Z,11.55
2018-11-21T09:17:21.598Z,12.03
2018-11-21T09:18:21.551Z,12.70
2018-11-21T09:19:21.509Z,12.98
2018-11-21T09:20:21.468Z,12.60
2018-11-21T09:21:21.419Z,11.17
2018-11-21T09:22:21.393Z,12.60
2018-11-21T09:23:21.338Z,12.98
2018-11-21T09:24:21.291Z,14.40
2018-11-21T09:25:21.255Z,15.16
2018-11-21T09:26:21.208Z,17.14
2018-11-21T09:27:21.166Z,17.24
2018-11-21T09:28:21.127Z,18.19
2018-11-21T09:29:21.076Z,18.66
2018-11-21T09:30:21.041Z,19.99
2018-11-21T09:31:20.994Z,21.12
2018-11-21T09:32:20.953Z,21.69
2018-11-21T09:33:20.904Z,21.88
2018-11-21T09:34:20.862Z,22.83
2018-11-21T09:35:20.821Z,22.45
2018-11-21T09:36:20.780Z,22.17
2018-11-21T09:37:20.739Z,22.36
2018-11-21T09:38:20.693Z,22.27
2018-11-21T09:39:20.651Z,22.45
2018-11-21T09:40:20.612Z,21.88
2018-11-21T09:41:20.562Z,21.88
2018-11-21T09:42:20.522Z,21.60
2018-11-21T09:43:20.477Z,20.37
2018-11-21T09:44:20.432Z,20.47
2018-11-21T09:45:20.396Z,20.47
2018-11-21T09:46:20.375Z,19.32
2018-11-21T09:47:20.307Z,19.04
2018-11-21T09:48:20.263Z,18.48
2018-11-21T09:49:20.224Z,18.66
2018-11-21T09:50:20.183Z,18.85
2018-11-21T09:51:20.133Z,18.95
2018-11-21T09:52:20.095Z,19.32
2018-11-21T09:53:20.047Z,19.89
2018-11-21T09:54:20.047Z,21.04
2018-11-21T09:55:19.967Z,21.69
2018-11-21T09:56:19.917Z,22.56
2018-11-21T09:57:19.882Z,23.69
2018-11-21T09:58:19.839Z,24.17
2018-11-21T09:59:19.793Z,24.46
2018-11-21T10:00:19.755Z,24.46
2018-11-21T10:01:19.704Z,24.46
2018-11-21T10:02:19.662Z,24.65
2018-11-21T10:03:19.622Z,24.36
2018-11-21T10:04:19.581Z,23.98
2018-11-21T10:05:19.533Z,23.22
2018-11-21T10:19:59.440Z,5.02
2018-11-21T10:20:59.378Z,13.75
2018-11-21T10:21:59.323Z,17.82
2018-11-21T10:22:59.278Z,21.51
2018-11-21T10:23:59.236Z,22.65
2018-11-21T10:24:59.190Z,24.74
2018-11-21T10:25:59.147Z,25.60
2018-11-21T10:26:59.103Z,26.36
2018-11-21T10:27:59.057Z,28.07
2018-11-21T10:28:59.011Z,31.56
2018-11-21T10:29:58.972Z,32.98
2018-11-21T10:30:58.927Z,34.42
2018-11-21T10:31:58.880Z,34.80
2018-11-21T10:32:58.836Z,34.90
2018-11-21T10:33:58.792Z,35.28
2018-11-21T10:34:58.753Z,34.33
2018-11-21T10:35:58.711Z,34.90
2018-11-21T10:36:58.668Z,37.27
2018-11-21T10:37:58.628Z,38.41
2018-11-21T10:38:58.587Z,37.18
2018-11-21T10:39:58.538Z,36.51
2018-11-21T10:40:58.491Z,37.18
2018-11-21T10:41:58.451Z,36.32
2018-11-21T10:42:58.409Z,36.13
2018-11-21T10:43:58.369Z,38.22
2018-11-21T10:44:58.322Z,38.31
2018-11-21T10:45:58.278Z,38.79
2018-11-21T10:46:58.235Z,39.36
2018-11-21T10:47:58.197Z,38.50
2018-11-21T10:48:58.151Z,38.22
2018-11-21T10:49:58.116Z,39.36
2018-11-21T10:50:58.070Z,38.12
2018-11-21T10:51:58.022Z,39.64
2018-11-21T10:52:57.980Z,39.45
2018-11-21T10:53:57.938Z,40.31
2018-11-21T10:54:57.896Z,39.54
2018-11-21T10:55:57.856Z,41.63
2018-11-21T10:56:57.815Z,43.43
2018-11-21T10:57:57.770Z,43.72
2018-11-21T10:58:57.729Z,42.49
2018-11-21T10:59:57.681Z,46.56
2018-11-21T11:00:57.643Z,47.06
2018-11-21T11:01:57.601Z,45.92
2018-11-21T11:02:57.562Z,49.05
2018-11-21T11:03:57.556Z,51.43
2018-11-21T11:04:57.471Z,51.43
2018-11-21T11:05:57.430Z,54.18
2018-11-21T11:06:57.386Z,54.08
2018-11-21T11:07:57.349Z,54.37
2018-11-21T11:08:57.305Z,53.70
2018-11-21T11:09:57.263Z,55.13
2018-11-21T11:10:57.224Z,55.41
2018-11-21T11:11:57.174Z,55.13
2018-11-21T11:12:57.138Z,54.94
2018-11-21T11:13:57.092Z,56.17
2018-11-21T11:14:57.048Z,57.21
2018-11-21T11:15:57.011Z,58.64
2018-11-21T11:16:56.970Z,58.17
2018-11-21T11:17:59.498Z,58.92
2018-11-21T11:18:56.892Z,58.83
2018-11-21T11:19:56.848Z,58.64
2018-11-21T11:20:56.824Z,58.83
2018-11-21T11:21:56.763Z,57.88
2018-11-21T11:22:56.724Z,58.17
2018-11-21T11:23:56.672Z,58.36
2018-11-21T11:24:56.630Z,58.73
2018-11-21T11:25:56.589Z,57.88
2018-11-21T11:26:56.545Z,59.68
2018-11-21T11:27:56.532Z,59.97
2018-11-21T11:28:56.464Z,60.06
2018-11-21T11:29:56.428Z,60.16
2018-11-21T11:30:56.383Z,60.53
2018-11-21T11:31:56.335Z,61.11
2018-11-21T11:32:56.297Z,62.05
2018-11-21T11:33:56.257Z,62.91
2018-11-21T11:34:56.217Z,63.86
2018-11-21T11:35:56.167Z,63.10
2018-11-21T11:36:56.133Z,63.67
2018-11-21T11:37:56.087Z,64.71
2018-11-21T11:38:56.043Z,65.19
2018-11-21T11:39:56.007Z,64.24
2018-11-21T11:40:55.964Z,65.75
2018-11-21T11:41:55.923Z,66.14
2018-11-21T11:42:55.880Z,66.04
2018-11-21T11:43:55.836Z,66.23
2018-11-21T11:44:55.817Z,66.93
2018-11-21T11:45:55.752Z,65.50
2018-11-21T11:46:55.712Z,65.12
2018-11-21T11:47:55.671Z,62.56
2018-11-21T11:48:55.632Z,52.59
2018-11-21T11:49:55.589Z,56.49
2018-11-21T11:50:55.546Z,53.35
2018-11-21T11:51:55.508Z,52.12
2018-11-21T11:52:55.466Z,47.18
2018-11-21T11:53:55.427Z,57.72
2018-11-21T11:54:55.381Z,61.04
2018-11-21T11:55:55.339Z,63.13
2018-11-21T11:56:55.294Z,60.47
2018-11-21T11:57:55.253Z,60.28
2018-11-21T11:58:55.213Z,61.71
2018-11-21T11:59:55.173Z,60.76
2018-11-21T12:00:55.134Z,60.44
2018-11-21T12:01:55.092Z,61.30
2018-11-21T12:02:55.056Z,61.77
2018-11-21T12:03:57.855Z,62.15
2018-11-21T12:04:54.962Z,62.62
2018-11-21T12:05:54.925Z,61.87
2018-11-21T12:06:54.886Z,59.88
2018-11-21T12:07:54.840Z,59.78
2018-11-21T12:08:54.795Z,59.49
2018-11-21T12:09:54.755Z,59.02
2018-11-21T12:10:54.718Z,57.59
2018-11-21T12:11:54.674Z,58.36
2018-11-21T12:12:54.636Z,57.50
2018-11-21T12:13:54.593Z,56.65
2018-11-21T12:14:54.551Z,55.70
2018-11-21T12:15:54.505Z,53.99
2018-11-21T12:16:54.463Z,53.42
2018-11-21T12:17:54.422Z,53.23
2018-11-21T12:18:54.381Z,54.37
2018-11-21T12:19:54.344Z,54.94
2018-11-21T12:20:54.302Z,54.25
2018-11-21T12:21:54.253Z,53.20
2018-11-21T12:22:54.214Z,52.73
2018-11-21T12:23:54.175Z,52.85
2018-11-21T12:24:54.133Z,52.85
2018-11-21T12:25:54.092Z,52.95
2018-11-21T12:26:54.050Z,55.32
2018-11-21T12:27:54.004Z,56.05
2018-11-21T12:28:53.961Z,55.32
2018-11-21T12:29:53.920Z,54.15
2018-11-21T12:30:53.878Z,53.87
2018-11-21T12:31:53.840Z,54.34
2018-11-21T12:32:53.809Z,53.87
2018-11-21T12:33:53.757Z,53.20
2018-11-21T12:34:53.717Z,53.02
2018-11-21T12:35:53.670Z,52.35
2018-11-21T12:36:53.627Z,51.03
2018-11-21T12:37:53.594Z,49.69
2018-11-21T12:38:53.547Z,50.36
2018-11-21T12:39:53.506Z,50.83
2018-11-21T12:40:53.458Z,50.17
2018-11-21T12:41:53.417Z,49.51
2018-11-21T12:42:53.379Z,50.64
2018-11-21T12:43:53.673Z,50.93
2018-11-21T12:44:53.295Z,50.26
2018-11-21T12:45:53.255Z,49.41
2018-11-21T12:46:53.210Z,49.60
2018-11-21T12:47:53.165Z,48.46
2018-11-21T12:48:53.122Z,48.94
2018-11-21T12:49:53.080Z,48.75
2018-11-21T12:50:53.041Z,47.89
2018-11-21T12:51:52.999Z,48.65
2018-11-21T12:52:52.959Z,50.26
2018-11-21T12:53:52.913Z,52.16
2018-11-21T12:54:52.873Z,43.05
2018-11-21T12:55:52.830Z,47.42
2018-11-21T12:56:52.794Z,49.88
2018-11-21T12:57:52.748Z,50.17
2018-11-21T12:58:52.707Z,51.03
2018-11-21T12:59:52.661Z,51.68
2018-11-21T13:00:52.616Z,51.87
2018-11-21T13:01:52.577Z,51.50
2018-11-21T13:02:52.535Z,51.50
2018-11-21T13:03:52.493Z,50.93
2018-11-21T13:04:52.458Z,50.26
2018-11-21T13:05:52.415Z,50.26
2018-11-21T13:06:52.368Z,50.83
2018-11-21T13:07:52.325Z,51.03
2018-11-21T13:08:52.293Z,50.64
2018-11-21T13:09:56.666Z,49.60
2018-11-21T13:10:52.200Z,50.64
2018-11-21T13:11:52.156Z,50.07
2018-11-21T13:12:52.111Z,51.40
2018-11-21T13:13:52.069Z,51.50
2018-11-21T13:14:52.029Z,50.36
2018-11-21T13:15:51.990Z,49.41
2018-11-21T13:16:51.951Z,51.50
2018-11-21T13:17:51.909Z,51.59
2018-11-21T13:18:51.863Z,51.68
2018-11-21T13:19:51.817Z,52.26
2018-11-21T13:20:51.776Z,51.59
2018-11-21T13:21:51.732Z,50.17